sensor_id;sensor_type;location;lat;lon;timestamp;pressure;altitude;pressure_sealevel;temperature;humidity
56082;BME280;41957;52.060;5.138;2022-11-20T00:00:51;101465.00;;;16.75;48.58
56082;BME280;41957;52.060;5.138;2022-11-20T00:03:17;101465.22;;;16.69;48.86
56082;BME280;41957;52.060;5.138;2022-11-20T00:05:43;101464.56;;;16.62;48.75
56082;BME280;41957;52.060;5.138;2022-11-20T00:08:08;101469.19;;;16.56;49.02
56082;BME280;41957;52.060;5.138;2022-11-20T00:10:36;101470.25;;;16.50;49.27
56082;BME280;41957;52.060;5.138;2022-11-20T00:13:02;101466.88;;;16.45;49.05
56082;BME280;41957;52.060;5.138;2022-11-20T00:15:27;101465.34;;;16.38;49.36
56082;BME280;41957;52.060;5.138;2022-11-20T00:17:52;101457.50;;;16.33;49.37
56082;BME280;41957;52.060;5.138;2022-11-20T00:20:18;101464.78;;;16.26;49.66
56082;BME280;41957;52.060;5.138;2022-11-20T00:22:43;101465.84;;;16.21;50.03
56082;BME280;41957;52.060;5.138;2022-11-20T00:25:09;101458.03;;;16.16;49.81
56082;BME280;41957;52.060;5.138;2022-11-20T00:27:34;101450.28;;;16.10;49.79
56082;BME280;41957;52.060;5.138;2022-11-20T00:30:00;101453.91;;;16.06;50.00
56082;BME280;41957;52.060;5.138;2022-11-20T00:32:25;101447.00;;;16.00;50.02
56082;BME280;41957;52.060;5.138;2022-11-20T00:34:51;101442.72;;;15.96;50.10
56082;BME280;41957;52.060;5.138;2022-11-20T00:37:16;101439.31;;;15.93;50.33
56082;BME280;41957;52.060;5.138;2022-11-20T00:39:41;101436.75;;;15.90;50.41
56082;BME280;41957;52.060;5.138;2022-11-20T00:42:06;101433.34;;;15.85;50.37
56082;BME280;41957;52.060;5.138;2022-11-20T00:44:32;101427.34;;;15.79;50.50
56082;BME280;41957;52.060;5.138;2022-11-20T00:46:57;101429.19;;;15.76;50.50
56082;BME280;41957;52.060;5.138;2022-11-20T00:49:22;101436.34;;;15.74;50.52
56082;BME280;41957;52.060;5.138;2022-11-20T00:51:48;101438.16;;;15.72;50.53
56082;BME280;41957;52.060;5.138;2022-11-20T00:54:13;101436.44;;;15.71;50.40
56082;BME280;41957;52.060;5.138;2022-11-20T00:56:38;101429.47;;;15.65;50.56
56082;BME280;41957;52.060;5.138;2022-11-20T00:59:05;101433.94;;;15.63;50.68
56082;BME280;41957;52.060;5.138;2022-11-20T01:01:30;101429.69;;;15.57;50.36
56082;BME280;41957;52.060;5.138;2022-11-20T01:03:58;101432.34;;;15.57;50.15
56082;BME280;41957;52.060;5.138;2022-11-20T01:06:26;101437.72;;;15.54;50.42
56082;BME280;41957;52.060;5.138;2022-11-20T01:08:55;101438.72;;;15.50;50.82
56082;BME280;41957;52.060;5.138;2022-11-20T01:11:23;101434.47;;;15.45;50.54
56082;BME280;41957;52.060;5.138;2022-11-20T01:13:50;101431.88;;;15.43;50.60
56082;BME280;41957;52.060;5.138;2022-11-20T01:16:17;101438.13;;;15.41;50.62
56082;BME280;41957;52.060;5.138;2022-11-20T01:18:46;101437.28;;;15.38;50.49
56082;BME280;41957;52.060;5.138;2022-11-20T01:21:24;101431.25;;;15.33;50.45
56082;BME280;41957;52.060;5.138;2022-11-20T01:23:50;101426.09;;;15.29;50.77
56082;BME280;41957;52.060;5.138;2022-11-20T01:26:25;101435.81;;;15.28;50.77
56082;BME280;41957;52.060;5.138;2022-11-20T01:28:51;101431.50;;;15.24;50.67
56082;BME280;41957;52.060;5.138;2022-11-20T01:31:22;101432.47;;;15.22;50.55
56082;BME280;41957;52.060;5.138;2022-11-20T01:33:49;101419.31;;;15.19;50.58
56082;BME280;41957;52.060;5.138;2022-11-20T01:36:17;101418.47;;;15.17;50.69
56082;BME280;41957;52.060;5.138;2022-11-20T01:38:42;101431.75;;;15.15;50.85
56082;BME280;41957;52.060;5.138;2022-11-20T01:41:10;101428.28;;;15.13;51.16
56082;BME280;41957;52.060;5.138;2022-11-20T01:43:36;101424.81;;;15.11;51.30
56082;BME280;41957;52.060;5.138;2022-11-20T01:46:18;101427.59;;;15.06;51.24
56082;BME280;41957;52.060;5.138;2022-11-20T01:54:08;101424.22;;;15.00;51.65
56082;BME280;41957;52.060;5.138;2022-11-20T01:56:38;101418.13;;;14.96;51.79
56082;BME280;41957;52.060;5.138;2022-11-20T01:59:05;101415.53;;;14.95;51.72
56082;BME280;41957;52.060;5.138;2022-11-20T02:01:32;101413.84;;;14.92;51.27
56082;BME280;41957;52.060;5.138;2022-11-20T02:03:58;101407.69;;;14.90;51.68
56082;BME280;41957;52.060;5.138;2022-11-20T02:06:44;101414.84;;;14.86;51.60
56082;BME280;41957;52.060;5.138;2022-11-20T02:09:11;101403.50;;;14.83;51.72
56082;BME280;41957;52.060;5.138;2022-11-20T02:11:37;101402.63;;;14.82;51.70
56082;BME280;41957;52.060;5.138;2022-11-20T02:14:02;101392.91;;;14.83;51.70
56082;BME280;41957;52.060;5.138;2022-11-20T02:16:33;101397.41;;;14.79;51.94
56082;BME280;41957;52.060;5.138;2022-11-20T02:19:01;101392.97;;;14.80;51.89
56082;BME280;41957;52.060;5.138;2022-11-20T02:24:34;101395.72;;;14.75;51.72
56082;BME280;41957;52.060;5.138;2022-11-20T02:26:57;101406.41;;;14.72;51.81
56082;BME280;41957;52.060;5.138;2022-11-20T02:32:25;101402.88;;;14.72;51.39
56082;BME280;41957;52.060;5.138;2022-11-20T02:34:51;101403.81;;;14.71;51.61
56082;BME280;41957;52.060;5.138;2022-11-20T02:37:18;101406.47;;;14.69;51.34
56082;BME280;41957;52.060;5.138;2022-11-20T02:39:46;101411.81;;;14.67;51.33
56082;BME280;41957;52.060;5.138;2022-11-20T02:42:12;101414.53;;;14.64;51.58
56082;BME280;41957;52.060;5.138;2022-11-20T02:44:37;101412.78;;;14.63;51.30
56082;BME280;41957;52.060;5.138;2022-11-20T02:47:02;101408.47;;;14.61;51.31
56082;BME280;41957;52.060;5.138;2022-11-20T02:49:28;101411.09;;;14.61;51.16
56082;BME280;41957;52.060;5.138;2022-11-20T02:51:53;101403.25;;;14.58;51.49
56082;BME280;41957;52.060;5.138;2022-11-20T02:54:18;101400.63;;;14.56;51.41
56082;BME280;41957;52.060;5.138;2022-11-20T02:56:44;101403.28;;;14.56;51.53
56082;BME280;41957;52.060;5.138;2022-11-20T02:59:09;101399.75;;;14.56;51.57
56082;BME280;41957;52.060;5.138;2022-11-20T03:01:35;101405.91;;;14.56;51.35
56082;BME280;41957;52.060;5.138;2022-11-20T03:04:00;101398.09;;;14.52;51.89
56082;BME280;41957;52.060;5.138;2022-11-20T03:06:26;101394.59;;;14.50;51.93
56082;BME280;41957;52.060;5.138;2022-11-20T03:08:51;101390.22;;;14.49;51.69
56082;BME280;41957;52.060;5.138;2022-11-20T03:11:16;101393.66;;;14.51;51.91
56082;BME280;41957;52.060;5.138;2022-11-20T03:13:42;101403.44;;;14.49;51.95
56082;BME280;41957;52.060;5.138;2022-11-20T03:16:12;101402.59;;;14.46;51.74
56082;BME280;41957;52.060;5.138;2022-11-20T03:18:39;101392.03;;;14.45;51.89
56082;BME280;41957;52.060;5.138;2022-11-20T03:21:05;101381.50;;;14.43;51.71
56082;BME280;41957;52.060;5.138;2022-11-20T03:23:33;101387.78;;;14.39;51.57
56082;BME280;41957;52.060;5.138;2022-11-20T03:26:28;101375.44;;;14.40;51.73
56082;BME280;41957;52.060;5.138;2022-11-20T03:28:59;101375.47;;;14.38;51.55
56082;BME280;41957;52.060;5.138;2022-11-20T03:31:30;101371.97;;;14.36;51.64
56082;BME280;41957;52.060;5.138;2022-11-20T03:33:57;101376.41;;;14.36;51.65
56082;BME280;41957;52.060;5.138;2022-11-20T03:36:23;101369.41;;;14.33;51.45
56082;BME280;41957;52.060;5.138;2022-11-20T03:38:49;101366.75;;;14.33;51.36
56082;BME280;41957;52.060;5.138;2022-11-20T03:41:17;101356.31;;;14.29;51.55
56082;BME280;41957;52.060;5.138;2022-11-20T03:43:48;101357.16;;;14.29;51.29
56082;BME280;41957;52.060;5.138;2022-11-20T03:46:13;101358.09;;;14.28;51.48
56082;BME280;41957;52.060;5.138;2022-11-20T03:48:38;101346.66;;;14.26;51.42
56082;BME280;41957;52.060;5.138;2022-11-20T03:53:36;101349.38;;;14.23;51.44
56082;BME280;41957;52.060;5.138;2022-11-20T03:56:02;101350.31;;;14.20;51.41
56082;BME280;41957;52.060;5.138;2022-11-20T03:58:27;101349.53;;;14.17;51.37
56082;BME280;41957;52.060;5.138;2022-11-20T04:00:52;101348.69;;;14.15;51.23
56082;BME280;41957;52.060;5.138;2022-11-20T04:03:18;101344.25;;;14.17;51.41
56082;BME280;41957;52.060;5.138;2022-11-20T04:05:43;101341.66;;;14.14;51.29
56082;BME280;41957;52.060;5.138;2022-11-20T04:08:09;101335.53;;;14.12;51.35
56082;BME280;41957;52.060;5.138;2022-11-20T04:10:34;101330.25;;;14.12;51.47
56082;BME280;41957;52.060;5.138;2022-11-20T04:13:00;101330.31;;;14.10;51.18
56082;BME280;41957;52.060;5.138;2022-11-20T04:15:25;101332.97;;;14.09;51.37
56082;BME280;41957;52.060;5.138;2022-11-20T04:17:50;101334.75;;;14.08;51.15
56082;BME280;41957;52.060;5.138;2022-11-20T04:20:15;101323.31;;;14.08;51.50
56082;BME280;41957;52.060;5.138;2022-11-20T04:22:41;101324.22;;;14.07;51.30
56082;BME280;41957;52.060;5.138;2022-11-20T04:25:06;101321.66;;;14.04;51.16
56082;BME280;41957;52.060;5.138;2022-11-20T04:27:32;101318.16;;;14.03;51.22
56082;BME280;41957;52.060;5.138;2022-11-20T04:29:57;101314.69;;;13.99;50.91
56082;BME280;41957;52.060;5.138;2022-11-20T04:32:22;101308.53;;;14.00;51.00
56082;BME280;41957;52.060;5.138;2022-11-20T04:34:48;101315.66;;;13.97;51.31
56082;BME280;41957;52.060;5.138;2022-11-20T04:37:13;101309.47;;;13.96;50.93
56082;BME280;41957;52.060;5.138;2022-11-20T04:39:38;101309.56;;;13.93;51.04
56082;BME280;41957;52.060;5.138;2022-11-20T04:42:04;101318.41;;;13.92;51.05
56082;BME280;41957;52.060;5.138;2022-11-20T04:44:48;101324.59;;;13.91;50.87
56082;BME280;41957;52.060;5.138;2022-11-20T04:47:13;101321.97;;;13.90;51.14
56082;BME280;41957;52.060;5.138;2022-11-20T04:49:38;101312.31;;;13.89;50.81
56082;BME280;41957;52.060;5.138;2022-11-20T04:52:04;101307.06;;;13.87;51.00
56082;BME280;41957;52.060;5.138;2022-11-20T04:54:29;101303.53;;;13.87;50.84
56082;BME280;41957;52.060;5.138;2022-11-20T04:56:54;101298.31;;;13.85;50.75
56082;BME280;41957;52.060;5.138;2022-11-20T04:59:20;101293.03;;;13.85;50.78
56082;BME280;41957;52.060;5.138;2022-11-20T05:01:45;101281.63;;;13.83;50.75
56082;BME280;41957;52.060;5.138;2022-11-20T05:04:10;101286.97;;;13.80;50.85
56082;BME280;41957;52.060;5.138;2022-11-20T05:06:36;101289.63;;;13.80;50.91
56082;BME280;41957;52.060;5.138;2022-11-20T05:09:01;101289.63;;;13.80;50.76
56082;BME280;41957;52.060;5.138;2022-11-20T05:11:27;101285.25;;;13.77;50.94
56082;BME280;41957;52.060;5.138;2022-11-20T05:13:54;101285.25;;;13.79;50.89
56082;BME280;41957;52.060;5.138;2022-11-20T05:16:24;101287.03;;;13.77;50.82
56082;BME280;41957;52.060;5.138;2022-11-20T05:18:50;101283.56;;;13.75;50.87
56082;BME280;41957;52.060;5.138;2022-11-20T05:21:16;101281.81;;;13.74;50.70
56082;BME280;41957;52.060;5.138;2022-11-20T05:23:43;101275.75;;;13.70;50.72
56082;BME280;41957;52.060;5.138;2022-11-20T05:26:14;101272.31;;;13.67;50.65
56082;BME280;41957;52.060;5.138;2022-11-20T05:28:40;101271.41;;;13.68;50.70
56082;BME280;41957;52.060;5.138;2022-11-20T05:31:19;101269.69;;;13.65;50.46
56082;BME280;41957;52.060;5.138;2022-11-20T05:33:46;101270.63;;;13.64;50.28
56082;BME280;41957;52.060;5.138;2022-11-20T05:36:12;101270.53;;;13.67;50.60
56082;BME280;41957;52.060;5.138;2022-11-20T05:38:38;101275.03;;;13.64;50.53
56082;BME280;41957;52.060;5.138;2022-11-20T05:41:12;101276.78;;;13.63;50.46
56082;BME280;41957;52.060;5.138;2022-11-20T05:43:40;101280.34;;;13.62;50.56
56082;BME280;41957;52.060;5.138;2022-11-20T05:46:07;101295.34;;;13.60;50.39
56082;BME280;41957;52.060;5.138;2022-11-20T05:48:33;101307.66;;;13.61;50.50
56082;BME280;41957;52.060;5.138;2022-11-20T05:51:01;101305.09;;;13.58;50.48
56082;BME280;41957;52.060;5.138;2022-11-20T05:53:26;101302.44;;;13.58;50.46
56082;BME280;41957;52.060;5.138;2022-11-20T05:56:03;101297.19;;;13.57;50.36
56082;BME280;41957;52.060;5.138;2022-11-20T05:58:30;101298.13;;;13.54;50.40
56082;BME280;41957;52.060;5.138;2022-11-20T06:01:04;101299.91;;;13.53;50.27
56082;BME280;41957;52.060;5.138;2022-11-20T06:03:29;101305.19;;;13.53;50.43
56082;BME280;41957;52.060;5.138;2022-11-20T06:05:55;101308.69;;;13.54;50.31
56082;BME280;41957;52.060;5.138;2022-11-20T06:08:20;101307.00;;;13.51;50.28
56082;BME280;41957;52.060;5.138;2022-11-20T06:10:45;101312.34;;;13.48;50.35
56082;BME280;41957;52.060;5.138;2022-11-20T06:13:11;101303.59;;;13.46;50.21
56082;BME280;41957;52.060;5.138;2022-11-20T06:15:36;101305.31;;;13.47;50.24
56082;BME280;41957;52.060;5.138;2022-11-20T06:18:01;101297.38;;;13.49;50.33
56082;BME280;41957;52.060;5.138;2022-11-20T06:20:27;101294.81;;;13.44;49.70
56082;BME280;41957;52.060;5.138;2022-11-20T06:22:52;101293.09;;;13.43;50.33
56082;BME280;41957;52.060;5.138;2022-11-20T06:25:17;101293.16;;;13.40;50.29
56082;BME280;41957;52.060;5.138;2022-11-20T06:27:43;101294.06;;;13.39;50.19
56082;BME280;41957;52.060;5.138;2022-11-20T06:30:08;101298.44;;;13.40;50.10
56082;BME280;41957;52.060;5.138;2022-11-20T06:32:34;101294.94;;;13.38;49.96
56082;BME280;41957;52.060;5.138;2022-11-20T06:34:59;101298.50;;;13.37;50.28
56082;BME280;41957;52.060;5.138;2022-11-20T06:37:25;101289.72;;;13.37;50.05
56082;BME280;41957;52.060;5.138;2022-11-20T06:39:50;101290.59;;;13.36;49.98
56082;BME280;41957;52.060;5.138;2022-11-20T06:42:15;101292.44;;;13.32;50.17
56082;BME280;41957;52.060;5.138;2022-11-20T06:44:40;101287.16;;;13.34;50.01
56082;BME280;41957;52.060;5.138;2022-11-20T06:47:06;101283.66;;;13.33;50.01
56082;BME280;41957;52.060;5.138;2022-11-20T06:49:31;101279.31;;;13.29;50.08
56082;BME280;41957;52.060;5.138;2022-11-20T06:51:57;101283.72;;;13.28;50.02
56082;BME280;41957;52.060;5.138;2022-11-20T06:54:22;101278.50;;;13.27;49.89
56082;BME280;41957;52.060;5.138;2022-11-20T06:56:47;101275.81;;;13.28;49.94
56082;BME280;41957;52.060;5.138;2022-11-20T06:59:13;101268.81;;;13.26;50.00
56082;BME280;41957;52.060;5.138;2022-11-20T07:01:39;101268.81;;;13.26;49.77
56082;BME280;41957;52.060;5.138;2022-11-20T07:04:04;101271.44;;;13.27;49.89
56082;BME280;41957;52.060;5.138;2022-11-20T07:06:30;101275.00;;;13.23;49.61
56082;BME280;41957;52.060;5.138;2022-11-20T07:08:55;101278.50;;;13.25;49.72
56082;BME280;41957;52.060;5.138;2022-11-20T07:11:21;101268.81;;;13.24;49.77
56082;BME280;41957;52.060;5.138;2022-11-20T07:13:46;101268.84;;;13.23;49.67
56082;BME280;41957;52.060;5.138;2022-11-20T07:16:11;101265.34;;;13.22;49.78
56082;BME280;41957;52.060;5.138;2022-11-20T07:18:37;101260.13;;;13.21;49.72
56082;BME280;41957;52.060;5.138;2022-11-20T07:21:04;101262.69;;;13.22;49.82
56082;BME280;41957;52.060;5.138;2022-11-20T07:23:30;101265.38;;;13.21;49.85
56082;BME280;41957;52.060;5.138;2022-11-20T07:25:56;101256.56;;;13.22;49.58
56082;BME280;41957;52.060;5.138;2022-11-20T07:28:21;101258.28;;;13.23;49.77
56082;BME280;41957;52.060;5.138;2022-11-20T07:30:53;101252.13;;;13.22;49.67
56082;BME280;41957;52.060;5.138;2022-11-20T07:33:19;101256.56;;;13.22;49.77
56082;BME280;41957;52.060;5.138;2022-11-20T07:35:45;101252.19;;;13.21;49.90
56082;BME280;41957;52.060;5.138;2022-11-20T07:38:10;101265.34;;;13.22;49.72
56082;BME280;41957;52.060;5.138;2022-11-20T07:40:35;101258.75;;;13.43;49.32
56082;BME280;41957;52.060;5.138;2022-11-20T07:43:01;101257.72;;;13.88;48.21
56082;BME280;41957;52.060;5.138;2022-11-20T07:45:26;101258.44;;;14.29;45.53
56082;BME280;41957;52.060;5.138;2022-11-20T07:47:51;101260.97;;;14.67;45.02
56082;BME280;41957;52.060;5.138;2022-11-20T07:50:17;101268.94;;;14.97;44.04
56082;BME280;41957;52.060;5.138;2022-11-20T07:52:43;101262.13;;;15.20;43.33
56082;BME280;41957;52.060;5.138;2022-11-20T07:55:09;101259.94;;;15.34;43.40
56082;BME280;41957;52.060;5.138;2022-11-20T07:57:35;101245.34;;;15.49;43.56
56082;BME280;41957;52.060;5.138;2022-11-20T08:00:01;101250.16;;;15.64;43.00
56082;BME280;41957;52.060;5.138;2022-11-20T08:02:26;101247.88;;;15.81;42.69
56082;BME280;41957;52.060;5.138;2022-11-20T08:04:52;101248.31;;;15.94;42.79
56082;BME280;41957;52.060;5.138;2022-11-20T08:07:17;101250.66;;;16.03;42.56
56082;BME280;41957;52.060;5.138;2022-11-20T08:09:42;101253.84;;;16.15;42.83
56082;BME280;41957;52.060;5.138;2022-11-20T08:12:08;101246.00;;;16.37;42.46
56082;BME280;41957;52.060;5.138;2022-11-20T08:14:58;101248.63;;;16.63;42.75
56082;BME280;41957;52.060;5.138;2022-11-20T08:17:23;101248.91;;;16.81;43.05
56082;BME280;41957;52.060;5.138;2022-11-20T08:19:49;101248.84;;;16.82;43.10
56082;BME280;41957;52.060;5.138;2022-11-20T08:22:14;101247.41;;;16.72;43.35
56082;BME280;41957;52.060;5.138;2022-11-20T08:24:41;101254.41;;;16.74;43.44
56082;BME280;41957;52.060;5.138;2022-11-20T08:27:06;101250.75;;;16.79;43.51
56082;BME280;41957;52.060;5.138;2022-11-20T08:29:31;101256.88;;;16.81;43.62
56082;BME280;41957;52.060;5.138;2022-11-20T08:31:57;101257.63;;;16.84;43.25
56082;BME280;41957;52.060;5.138;2022-11-20T08:34:22;101251.34;;;16.87;43.06
56082;BME280;41957;52.060;5.138;2022-11-20T08:36:47;101245.91;;;16.90;43.15
56082;BME280;41957;52.060;5.138;2022-11-20T08:39:13;101248.50;;;16.91;43.02
56082;BME280;41957;52.060;5.138;2022-11-20T08:41:39;101253.75;;;16.93;42.95
56082;BME280;41957;52.060;5.138;2022-11-20T08:44:06;101252.25;;;16.86;43.02
56082;BME280;41957;52.060;5.138;2022-11-20T08:46:37;101254.25;;;16.79;43.62
56082;BME280;41957;52.060;5.138;2022-11-20T08:49:04;101257.84;;;16.78;43.21
56082;BME280;41957;52.060;5.138;2022-11-20T08:51:30;101251.69;;;16.78;43.31
56082;BME280;41957;52.060;5.138;2022-11-20T08:53:55;101249.06;;;16.76;43.22
56082;BME280;41957;52.060;5.138;2022-11-20T08:56:20;101246.44;;;16.74;43.26
56082;BME280;41957;52.060;5.138;2022-11-20T08:58:46;101248.28;;;16.72;43.18
56082;BME280;41957;52.060;5.138;2022-11-20T09:01:11;101242.47;;;16.61;42.77
56082;BME280;41957;52.060;5.138;2022-11-20T09:03:36;101242.06;;;16.48;42.93
56082;BME280;41957;52.060;5.138;2022-11-20T09:06:04;101230.81;;;16.42;42.94
56082;BME280;41957;52.060;5.138;2022-11-20T09:08:30;101218.41;;;16.42;42.67
56082;BME280;41957;52.060;5.138;2022-11-20T09:10:57;101215.84;;;16.39;43.01
56082;BME280;41957;52.060;5.138;2022-11-20T09:13:23;101220.44;;;16.34;42.73
56082;BME280;41957;52.060;5.138;2022-11-20T09:15:56;101217.16;;;16.27;43.07
56082;BME280;41957;52.060;5.138;2022-11-20T09:18:23;101215.66;;;16.19;42.99
56082;BME280;41957;52.060;5.138;2022-11-20T09:20:49;101210.44;;;16.17;42.35
56082;BME280;41957;52.060;5.138;2022-11-20T09:23:15;101213.09;;;16.17;42.32
56082;BME280;41957;52.060;5.138;2022-11-20T09:25:40;101210.38;;;16.19;43.14
56082;BME280;41957;52.060;5.138;2022-11-20T09:28:05;101207.81;;;16.16;43.32
56082;BME280;41957;52.060;5.138;2022-11-20T09:30:31;101200.06;;;15.85;43.16
56082;BME280;41957;52.060;5.138;2022-11-20T09:32:56;101204.03;;;15.98;44.27
56082;BME280;41957;52.060;5.138;2022-11-20T09:35:22;101196.78;;;16.03;44.26
56082;BME280;41957;52.060;5.138;2022-11-20T09:37:47;101200.16;;;16.08;44.34
56082;BME280;41957;52.060;5.138;2022-11-20T09:43:18;101179.09;;;16.28;44.36
56082;BME280;41957;52.060;5.138;2022-11-20T09:45:44;101190.63;;;16.27;44.07
56082;BME280;41957;52.060;5.138;2022-11-20T09:56:16;101179.81;;;16.57;44.12
56082;BME280;41957;52.060;5.138;2022-11-20T09:58:45;101185.41;;;16.73;43.71
56082;BME280;41957;52.060;5.138;2022-11-20T10:01:17;101180.97;;;16.99;43.77
56082;BME280;41957;52.060;5.138;2022-11-20T10:03:56;101182.53;;;17.04;43.81
56082;BME280;41957;52.060;5.138;2022-11-20T10:06:44;101178.00;;;17.06;44.03
56082;BME280;41957;52.060;5.138;2022-11-20T10:11:59;101170.47;;;17.17;44.93
56082;BME280;41957;52.060;5.138;2022-11-20T10:14:41;101158.03;;;16.96;42.90
56082;BME280;41957;52.060;5.138;2022-11-20T10:23:06;101144.66;;;17.21;45.62
56082;BME280;41957;52.060;5.138;2022-11-20T10:31:08;101117.28;;;17.19;45.66
56082;BME280;41957;52.060;5.138;2022-11-20T10:33:41;101112.03;;;17.17;45.71
56082;BME280;41957;52.060;5.138;2022-11-20T10:38:54;101098.56;;;17.00;46.67
56082;BME280;41957;52.060;5.138;2022-11-20T10:41:25;101104.97;;;16.94;46.56
56082;BME280;41957;52.060;5.138;2022-11-20T10:44:05;101090.84;;;16.94;46.61
56082;BME280;41957;52.060;5.138;2022-11-20T10:46:43;101093.19;;;17.02;46.38
56082;BME280;41957;52.060;5.138;2022-11-20T10:49:16;101087.25;;;16.95;46.74
56082;BME280;41957;52.060;5.138;2022-11-20T10:52:16;101080.91;;;16.77;46.24
56082;BME280;41957;52.060;5.138;2022-11-20T10:55:16;101071.50;;;16.67;45.43
56082;BME280;41957;52.060;5.138;2022-11-20T10:58:09;101060.16;;;16.63;45.07
56082;BME280;41957;52.060;5.138;2022-11-20T11:00:36;101049.53;;;16.63;44.92
56082;BME280;41957;52.060;5.138;2022-11-20T11:03:02;101035.41;;;16.63;44.89
56082;BME280;41957;52.060;5.138;2022-11-20T11:08:19;101029.72;;;16.50;44.78
56082;BME280;41957;52.060;5.138;2022-11-20T11:10:50;101022.91;;;16.43;45.00
56082;BME280;41957;52.060;5.138;2022-11-20T11:13:25;101018.66;;;16.39;45.42
56082;BME280;41957;52.060;5.138;2022-11-20T11:15:51;101023.25;;;16.34;45.25
56082;BME280;41957;52.060;5.138;2022-11-20T11:18:31;101027.41;;;16.17;45.62
56082;BME280;41957;52.060;5.138;2022-11-20T11:20:59;101016.13;;;16.12;44.80
56082;BME280;41957;52.060;5.138;2022-11-20T11:23:34;101006.56;;;16.08;45.60
56082;BME280;41957;52.060;5.138;2022-11-20T11:26:03;100997.78;;;16.06;45.01
56082;BME280;41957;52.060;5.138;2022-11-20T11:28:29;100997.75;;;16.08;45.44
56082;BME280;41957;52.060;5.138;2022-11-20T11:30:55;100994.69;;;15.95;45.04
56082;BME280;41957;52.060;5.138;2022-11-20T11:33:26;101003.59;;;15.67;44.72
56082;BME280;41957;52.060;5.138;2022-11-20T11:38:34;101007.56;;;15.80;45.58
56082;BME280;41957;52.060;5.138;2022-11-20T11:41:01;100985.31;;;15.85;46.11
56082;BME280;41957;52.060;5.138;2022-11-20T11:43:30;100986.03;;;15.90;46.20
56082;BME280;41957;52.060;5.138;2022-11-20T11:46:30;100983.59;;;15.83;46.61
56082;BME280;41957;52.060;5.138;2022-11-20T11:54:34;100964.69;;;15.69;48.08
56082;BME280;41957;52.060;5.138;2022-11-20T11:57:03;100961.28;;;15.64;48.24
56082;BME280;41957;52.060;5.138;2022-11-20T12:02:31;100956.22;;;15.58;48.79
56082;BME280;41957;52.060;5.138;2022-11-20T12:05:05;100944.00;;;15.54;48.95
56082;BME280;41957;52.060;5.138;2022-11-20T12:07:46;100945.16;;;15.47;49.36
56082;BME280;41957;52.060;5.138;2022-11-20T12:13:14;100920.59;;;15.42;50.17
56082;BME280;41957;52.060;5.138;2022-11-20T12:15:44;100920.59;;;15.42;50.03
56082;BME280;41957;52.060;5.138;2022-11-20T12:18:15;100919.00;;;15.37;50.05
56082;BME280;41957;52.060;5.138;2022-11-20T12:20:54;100905.91;;;15.33;50.40
56082;BME280;41957;52.060;5.138;2022-11-20T12:26:31;100888.66;;;15.21;50.51
56082;BME280;41957;52.060;5.138;2022-11-20T12:34:16;100873.88;;;15.16;51.13
56082;BME280;41957;52.060;5.138;2022-11-20T12:37:08;100865.22;;;15.10;50.88
56082;BME280;41957;52.060;5.138;2022-11-20T12:39:35;100859.06;;;15.10;51.14
56082;BME280;41957;52.060;5.138;2022-11-20T12:56:27;100846.31;;;14.96;51.44
56082;BME280;41957;52.060;5.138;2022-11-20T12:59:23;100842.94;;;14.91;52.14
56082;BME280;41957;52.060;5.138;2022-11-20T13:07:21;100821.00;;;14.89;52.72
56082;BME280;41957;52.060;5.138;2022-11-20T13:09:49;100821.75;;;14.93;52.55
56082;BME280;41957;52.060;5.138;2022-11-20T13:15:32;100819.81;;;14.98;52.94
56082;BME280;41957;52.060;5.138;2022-11-20T13:18:00;100817.94;;;15.00;53.04
56082;BME280;41957;52.060;5.138;2022-11-20T13:20:27;100818.00;;;14.98;53.42
56082;BME280;41957;52.060;5.138;2022-11-20T13:22:55;100810.81;;;15.02;53.88
56082;BME280;41957;52.060;5.138;2022-11-20T13:27:56;100808.06;;;15.05;53.93
56082;BME280;41957;52.060;5.138;2022-11-20T13:30:24;100798.63;;;14.98;53.86
56082;BME280;41957;52.060;5.138;2022-11-20T13:36:01;100780.84;;;15.01;54.08
56082;BME280;41957;52.060;5.138;2022-11-20T13:38:28;100785.22;;;15.02;54.19
56082;BME280;41957;52.060;5.138;2022-11-20T13:40:59;100788.78;;;15.01;54.59
56082;BME280;41957;52.060;5.138;2022-11-20T13:43:46;100797.59;;;15.02;54.58
56082;BME280;41957;52.060;5.138;2022-11-20T13:46:12;100801.94;;;15.03;54.36
56082;BME280;41957;52.060;5.138;2022-11-20T13:48:40;100783.50;;;15.01;54.27
56082;BME280;41957;52.060;5.138;2022-11-20T13:51:11;100780.03;;;14.99;54.16
56082;BME280;41957;52.060;5.138;2022-11-20T14:01:45;100735.44;;;14.88;54.50
56082;BME280;41957;52.060;5.138;2022-11-20T14:04:15;100744.16;;;14.90;54.25
56082;BME280;41957;52.060;5.138;2022-11-20T14:06:44;100741.47;;;14.92;54.24
56082;BME280;41957;52.060;5.138;2022-11-20T14:09:28;100730.25;;;14.85;54.42
56082;BME280;41957;52.060;5.138;2022-11-20T14:11:54;100726.81;;;14.82;54.56
56082;BME280;41957;52.060;5.138;2022-11-20T14:14:23;100710.16;;;14.80;54.23
56082;BME280;41957;52.060;5.138;2022-11-20T14:16:50;100706.69;;;14.78;54.50
56082;BME280;41957;52.060;5.138;2022-11-20T14:19:35;100698.94;;;14.73;54.28
56082;BME280;41957;52.060;5.138;2022-11-20T14:22:23;100690.91;;;14.76;54.11
56082;BME280;41957;52.060;5.138;2022-11-20T14:25:01;100691.69;;;14.78;54.27
56082;BME280;41957;52.060;5.138;2022-11-20T14:27:27;100686.47;;;14.77;54.28
56082;BME280;41957;52.060;5.138;2022-11-20T14:29:53;100691.56;;;14.81;54.37
56082;BME280;41957;52.060;5.138;2022-11-20T14:32:20;100683.97;;;14.72;54.53
56082;BME280;41957;52.060;5.138;2022-11-20T14:34:48;100685.59;;;14.76;54.59
56082;BME280;41957;52.060;5.138;2022-11-20T14:37:21;100682.97;;;14.76;54.71
56082;BME280;41957;52.060;5.138;2022-11-20T14:39:53;100680.09;;;14.82;54.96